Allhallows, United Kingdom
Current Conditions -  °F | °C
As of 8:50 AM on Monday 22 Dec 2014 (Local Time) from EGMC Reporting Station
Broken Clouds Broken Clouds  
Wind Chill: 57°   Ceiling: 2600
Heat Index: 57°   Visibility: 6mi
Dew Point: 48°   Wind: 22mph
Humidity: 72%   Direction: 240°WSW
Pressure: 30"   Gusts: 33mph
Location:  51.47°N, 0.64°E
Report Text: EGMC 220850Z 24019G29KT 9999 BKN026 14/09 Q1016
Loading
Personal Weather Stations






























Interactive Weather Map New forecast layout! Learn more

10-Day Weather Forecast

Advertisements
Track Severe Weather on mobile